Time;durP1;ratioP1;P1;durP2;ratioP2;P2;SDS_P1;SDS_P2;PMS_P1;PMS_P2;Temp;Humidity;BMP_temperature;BMP_pressure;BME280_temperature;BME280_humidity;BME280_pressure;Samples;Min_cycle;Max_cycle;Signal;HPM_P1;HPM_P2
2021/12/30 00:04:36;;;;;;;2.70;1.45;;;;;;;15.28;57.32;100416.00;19748211;30;20060;-73
2021/12/30 00:14:38;;;;;;;5.57;1.42;;;;;;;15.30;57.40;100429.25;19734153;30;20074;-73
2021/12/30 00:24:40;;;;;;;4.93;1.40;;;;;;;14.41;57.73;100281.19;19737085;30;20070;-72
2021/12/30 00:34:41;;;;;;;4.53;1.45;;;;;;;14.69;57.57;100371.78;19747431;30;20439;-72
2021/12/30 00:44:43;;;;;;;4.35;1.40;;;;;;;15.07;57.88;100474.97;19747428;30;20110;-73
2021/12/30 00:54:45;;;;;;;5.22;1.67;;;;;;;14.72;57.69;100443.91;19746111;30;20063;-72
2021/12/30 01:04:47;;;;;;;6.25;1.73;;;;;;;14.55;58.00;100426.50;19744215;30;20055;-72
2021/12/30 01:14:49;;;;;;;6.85;1.60;;;;;;;14.64;57.81;100461.44;19744616;30;20063;-72
2021/12/30 01:24:54;;;;;;;4.07;1.80;;;;;;;14.57;57.87;100440.63;19742521;30;20060;-72
2021/12/30 01:34:56;;;;;;;5.87;1.97;;;;;;;13.65;57.96;100300.72;19742063;30;20064;-72
2021/12/30 01:44:57;;;;;;;4.57;2.00;;;;;;;15.07;57.88;100531.28;19741227;30;20056;-73
2021/12/30 01:54:59;;;;;;;5.82;2.00;;;;;;;14.83;57.89;100515.38;19755803;30;20099;-72
2021/12/30 02:05:01;;;;;;;6.97;2.00;;;;;;;14.89;58.01;100553.22;19725405;30;20113;-72
2021/12/30 02:15:06;;;;;;;5.72;2.13;;;;;;;14.98;58.06;100551.63;19740527;30;20109;-72
2021/12/30 02:25:08;;;;;;;7.03;2.47;;;;;;;15.05;58.13;100576.13;19738252;30;20063;-72
2021/12/30 02:35:10;;;;;;;5.75;2.15;;;;;;;14.75;58.06;100542.78;19739146;30;20055;-72
2021/12/30 02:45:13;;;;;;;6.40;2.05;;;;;;;15.05;57.83;100603.78;19738778;30;20121;-72
2021/12/30 02:55:15;;;;;;;7.68;2.33;;;;;;;15.00;58.05;100597.06;19751034;29;20150;-72
2021/12/30 03:05:19;;;;;;;6.22;2.40;;;;;;;15.06;58.08;100616.19;19736878;30;20060;-72
2021/12/30 03:15:21;;;;;;;7.03;2.92;;;;;;;15.01;58.00;100618.41;19720531;30;20055;-72
2021/12/30 03:25:23;;;;;;;6.32;2.10;;;;;;;14.58;58.39;100547.66;19735666;30;20068;-72
2021/12/30 03:35:24;;;;;;;7.40;2.10;;;;;;;14.79;57.79;100565.69;19735578;30;20081;-72
2021/12/30 03:45:27;;;;;;;9.20;2.75;;;;;;;15.05;58.32;100590.38;19735752;30;20056;-72
2021/12/30 03:55:30;;;;;;;7.93;3.05;;;;;;;15.04;58.40;100620.00;19735238;30;20068;-74
2021/12/30 04:05:32;;;;;;;6.68;2.28;;;;;;;14.86;57.89;100577.59;19745815;30;20059;-72
2021/12/30 04:15:33;;;;;;;6.38;2.22;;;;;;;14.08;58.51;100400.78;19748795;30;20496;-73
2021/12/30 04:25:35;;;;;;;5.95;2.15;;;;;;;15.07;58.45;100568.81;19748079;30;20060;-72
2021/12/30 04:35:37;;;;;;;7.18;2.50;;;;;;;14.94;58.43;100568.94;19760988;30;20074;-72
2021/12/30 04:45:39;;;;;;;7.10;2.17;;;;;;;14.68;58.38;100569.19;19746693;30;20060;-72
2021/12/30 04:55:42;;;;;;;7.80;2.60;;;;;;;15.02;58.52;100608.50;19746050;30;20052;-72
2021/12/30 05:05:49;;;;;;;7.43;2.85;;;;;;;14.85;58.79;100541.06;19745350;30;20063;-72
2021/12/30 05:15:51;;;;;;;6.43;2.15;;;;;;;15.01;58.85;100540.66;19744389;30;20507;-72
2021/12/30 05:25:54;;;;;;;5.00;2.05;;;;;;;15.44;58.27;100592.56;19743713;30;20419;-72
2021/12/30 05:35:55;;;;;;;5.10;2.05;;;;;;;15.29;57.96;100559.84;19743239;30;20068;-73
2021/12/30 05:45:57;;;;;;;6.28;1.80;;;;;;;15.63;58.46;100601.78;19743643;30;20055;-72
2021/12/30 05:55:59;;;;;;;5.05;1.80;;;;;;;15.80;58.43;100593.13;19742163;30;20063;-72
2021/12/30 06:06:01;;;;;;;5.20;1.77;;;;;;;16.00;58.64;100576.34;19741151;30;20060;-71
2021/12/30 06:16:03;;;;;;;5.75;2.05;;;;;;;16.18;58.73;100582.84;19740517;30;20097;-72
2021/12/30 06:26:05;;;;;;;6.32;1.70;;;;;;;15.80;59.10;100509.09;19752534;30;20063;-72
2021/12/30 06:36:07;;;;;;;5.28;1.90;;;;;;;16.33;59.69;100583.31;19739230;30;20060;-72
2021/12/30 06:46:10;;;;;;;7.43;2.15;;;;;;;16.14;59.76;100540.25;19738382;30;20082;-73
2021/12/30 06:56:13;;;;;;;6.13;2.03;;;;;;;16.55;60.08;100605.63;19737880;30;20059;-72
2021/12/30 07:06:15;;;;;;;6.70;2.60;;;;;;;16.56;60.15;100599.25;19736018;30;20063;-72
2021/12/30 07:16:17;;;;;;;7.45;2.20;;;;;;;16.21;60.27;100557.53;19736490;30;20150;-72
2021/12/30 07:26:18;;;;;;;4.45;2.40;;;;;;;16.47;60.51;100603.59;19735964;30;20071;-72
2021/12/30 07:36:21;;;;;;;7.65;2.08;;;;;;;16.36;60.61;100583.06;19735560;30;20702;-71
2021/12/30 07:46:23;;;;;;;12.48;2.20;;;;;;;16.24;60.58;100549.19;19719217;30;20048;-71
2021/12/30 07:56:24;;;;;;;3.63;1.50;;;;;;;16.33;60.50;100572.56;19734992;30;20410;-72
2021/12/30 08:06:30;;;;;;;3.42;1.08;;;;;;;16.75;60.38;100619.13;19734684;30;20147;-71
2021/12/30 08:16:32;;;;;;;4.78;1.10;;;;;;;16.61;60.44;100597.03;19734226;30;20060;-72
2021/12/30 08:26:34;;;;;;;5.18;1.10;;;;;;;16.46;60.01;100568.81;19733686;30;20066;-72
2021/12/30 08:36:35;;;;;;;4.28;1.48;;;;;;;16.79;60.10;100631.31;19733407;30;20059;-71
2021/12/30 08:46:37;;;;;;;2.00;0.75;;;;;;;16.43;60.22;100571.78;19736797;30;20064;-71
2021/12/30 08:56:39;;;;;;;2.97;1.00;;;;;;;16.80;60.47;100633.03;19746175;30;20060;-71
2021/12/30 09:06:41;;;;;;;2.60;0.73;;;;;;;16.37;60.97;100579.41;19744677;30;20064;-71
2021/12/30 09:16:43;;;;;;;2.50;0.80;;;;;;;16.82;61.62;100663.34;19746138;30;20150;-71
2021/12/30 09:26:45;;;;;;;2.05;0.77;;;;;;;16.78;61.81;100672.63;19744050;30;20546;-72
2021/12/30 09:36:48;;;;;;;1.80;0.70;;;;;;;16.84;61.94;100692.75;19744662;30;20140;-71
2021/12/30 09:46:49;;;;;;;1.85;0.80;;;;;;;16.28;62.12;100593.59;19742629;30;20052;-71
2021/12/30 09:56:52;;;;;;;1.38;0.70;;;;;;;16.41;62.25;100643.59;19741130;30;20522;-71
2021/12/30 10:06:54;;;;;;;4.63;0.80;;;;;;;16.90;62.16;100698.47;19741322;30;20060;-71
2021/12/30 10:17:18;;;;;;;1.67;0.60;;;;;;;16.92;62.12;100720.69;19740820;30;20055;-71
2021/12/30 10:27:28;;;;;;;2.55;0.75;;;;;;;16.92;62.02;100728.75;19739460;30;20089;-74
2021/12/30 10:37:31;;;;;;;1.45;0.98;;;;;;;16.58;62.23;100661.78;19739240;30;20064;-71
2021/12/30 10:47:50;;;;;;;2.35;0.70;;;;;;;16.85;62.17;100706.06;19722701;30;20150;-72
2021/12/30 10:57:52;;;;;;;2.08;0.55;;;;;;;16.44;62.20;100636.13;19737825;30;20067;-71
2021/12/30 11:07:55;;;;;;;1.95;0.70;;;;;;;16.61;61.88;100658.00;19737413;30;20109;-71
2021/12/30 11:18:11;;;;;;;2.33;0.75;;;;;;;16.92;61.99;100712.63;19736903;30;20072;-71
2021/12/30 11:28:12;;;;;;;4.53;1.10;;;;;;;16.59;61.64;100674.25;19735911;30;20070;-71
2021/12/30 11:38:15;;;;;;;4.00;1.10;;;;;;;16.86;61.69;100713.16;19719965;30;20113;-72
2021/12/30 11:48:25;;;;;;;2.47;1.00;;;;;;;16.65;61.90;100689.84;19719788;30;20063;-71
2021/12/30 11:58:40;;;;;;;2.97;0.82;;;;;;;17.11;62.21;100759.44;19734975;30;20064;-72
2021/12/30 12:08:46;;;;;;;2.63;0.90;;;;;;;16.26;62.62;100617.06;19733391;30;20564;-72
2021/12/30 12:19:06;;;;;;;4.43;1.27;;;;;;;16.69;62.77;100690.44;19735594;30;20072;-72
2021/12/30 12:29:43;;;;;;;4.53;1.65;;;;;;;16.68;62.99;100705.69;19747853;30;20186;-72
2021/12/30 12:39:55;;;;;;;3.78;1.17;;;;;;;17.08;63.25;100776.72;19747564;30;20587;-72
2021/12/30 12:50:06;;;;;;;3.05;1.00;;;;;;;16.87;63.19;100736.38;19746658;30;20059;-72
2021/12/30 13:00:09;;;;;;;3.33;1.10;;;;;;;16.67;63.10;100724.66;19745076;30;20502;-72
2021/12/30 13:10:19;;;;;;;3.33;1.40;;;;;;;16.78;62.97;100748.78;19744208;30;20054;-72
2021/12/30 13:20:25;;;;;;;1.95;1.08;;;;;;;16.95;63.13;100776.03;19744770;30;20082;-72
2021/12/30 13:30:27;;;;;;;3.55;1.42;;;;;;;16.70;62.96;100740.53;19667338;30;20072;-72
2021/12/30 13:40:37;;;;;;;4.32;1.40;;;;;;;17.12;62.83;100823.00;19669890;30;20491;-72
2021/12/30 13:50:42;;;;;;;3.47;1.38;;;;;;;16.89;62.57;100763.09;19669177;30;20419;-71
2021/12/30 14:00:49;;;;;;;4.17;1.50;;;;;;;17.11;62.51;100829.38;19667368;30;20056;-72
2021/12/30 14:10:57;;;;;;;1.92;0.80;;;;;;;17.03;62.46;100813.03;19667578;30;20064;-72
2021/12/30 14:21:00;;;;;;;3.20;1.17;;;;;;;16.79;62.15;100800.69;19667171;30;20060;-72
2021/12/30 14:31:02;;;;;;;3.78;1.38;;;;;;;16.60;62.24;100748.50;19680447;30;20582;-73
2021/12/30 14:41:15;;;;;;;3.10;1.42;;;;;;;17.01;62.16;100844.59;19665596;30;20063;-72
2021/12/30 14:51:20;;;;;;;4.45;1.30;;;;;;;16.74;62.26;100810.97;19664298;30;20064;-72
2021/12/30 15:01:22;;;;;;;3.50;1.20;;;;;;;17.17;62.25;100882.63;19664444;30;20444;-72
2021/12/30 15:11:28;;;;;;;3.67;1.48;;;;;;;17.16;62.03;100880.09;19662567;30;20623;-71
2021/12/30 15:21:29;;;;;;;2.50;1.10;;;;;;;17.21;62.01;100900.22;19662092;30;20056;-72
2021/12/30 15:31:31;;;;;;;3.85;1.33;;;;;;;17.22;62.12;100918.06;19733274;30;20056;-72
2021/12/30 15:41:33;;;;;;;4.15;1.42;;;;;;;16.72;62.08;100840.69;19736723;30;20059;-71
2021/12/30 15:51:36;;;;;;;3.00;1.33;;;;;;;17.11;62.01;100912.75;19735178;30;20059;-71
2021/12/30 16:01:38;;;;;;;4.85;1.17;;;;;;;16.82;61.79;100864.97;19746926;30;20060;-71
2021/12/30 16:11:42;;;;;;;5.72;1.20;;;;;;;17.27;61.82;100951.81;19749595;30;20491;-71
2021/12/30 16:21:44;;;;;;;3.67;1.30;;;;;;;16.74;61.82;100848.63;19749028;30;20117;-71
2021/12/30 16:31:46;;;;;;;4.13;1.30;;;;;;;17.24;61.88;100953.78;19732448;30;20490;-72
2021/12/30 16:41:49;;;;;;;2.70;0.93;;;;;;;17.15;61.76;100975.22;19747434;30;20068;-71
2021/12/30 16:51:52;;;;;;;3.63;1.55;;;;;;;16.92;61.76;100918.81;19745618;30;20052;-71
2021/12/30 17:01:54;;;;;;;3.30;1.33;;;;;;;17.33;61.82;100967.44;19730361;30;20066;-72
2021/12/30 17:11:56;;;;;;;2.28;1.42;;;;;;;17.04;61.63;100925.03;19744847;30;20060;-71
2021/12/30 17:21:58;;;;;;;2.72;1.30;;;;;;;17.32;61.66;100977.34;19744583;30;20067;-71
2021/12/30 17:32:00;;;;;;;4.05;1.63;;;;;;;17.29;61.61;100987.53;19744189;30;20483;-71
2021/12/30 17:42:03;;;;;;;3.33;1.50;;;;;;;17.33;61.56;101010.50;19727494;30;20511;-72
2021/12/30 17:52:07;;;;;;;3.75;1.50;;;;;;;17.28;61.62;101012.72;19742657;30;20517;-71
2021/12/30 18:02:09;;;;;;;2.40;1.35;;;;;;;17.21;61.68;100991.69;19741939;30;20067;-71
2021/12/30 18:12:11;;;;;;;3.28;1.63;;;;;;;17.02;61.64;100960.13;19741306;30;20064;-71
2021/12/30 18:22:13;;;;;;;3.95;1.45;;;;;;;17.06;61.42;100988.47;19739544;30;20063;-72
2021/12/30 18:32:16;;;;;;;4.65;1.42;;;;;;;16.93;61.70;100971.59;19738864;30;20113;-72
2021/12/30 18:42:19;;;;;;;3.05;1.15;;;;;;;17.37;61.61;101044.22;19723411;30;20071;-72
2021/12/30 18:52:21;;;;;;;3.58;1.58;;;;;;;17.29;61.62;101023.34;19738359;30;20055;-72
2021/12/30 19:02:23;;;;;;;3.00;1.20;;;;;;;17.05;61.66;100988.59;19737769;30;20085;-72
2021/12/30 19:12:29;;;;;;;3.80;1.55;;;;;;;16.85;61.81;100964.19;19736767;30;20059;-72
2021/12/30 19:22:31;;;;;;;3.15;1.30;;;;;;;17.01;61.86;100998.75;19735274;30;20067;-72
2021/12/30 19:32:33;;;;;;;3.50;1.55;;;;;;;16.96;61.65;101001.81;19735893;30;20064;-72
2021/12/30 19:42:40;;;;;;;2.20;1.27;;;;;;;16.73;61.69;100970.56;19735676;30;20514;-72
2021/12/30 19:52:43;;;;;;;2.58;1.50;;;;;;;17.08;61.84;101047.50;19719519;30;20083;-72
2021/12/30 20:02:45;;;;;;;2.88;1.08;;;;;;;16.85;61.91;101017.97;19734993;30;20063;-73
2021/12/30 20:12:48;;;;;;;2.92;1.10;;;;;;;16.55;62.10;100972.94;19734506;30;20561;-72
2021/12/30 20:22:50;;;;;;;2.03;1.10;;;;;;;16.46;62.22;100982.63;19718276;30;20067;-72
2021/12/30 20:32:53;;;;;;;2.20;1.08;;;;;;;16.53;62.42;101008.03;19734263;30;20060;-72
2021/12/30 20:42:56;;;;;;;2.67;1.33;;;;;;;16.82;62.54;101066.63;19737900;30;20143;-72
2021/12/30 20:52:58;;;;;;;2.78;1.20;;;;;;;16.35;62.93;101003.16;19745492;30;20080;-72
2021/12/30 21:03:00;;;;;;;3.30;1.20;;;;;;;15.90;62.74;100946.75;19730452;30;20063;-72
2021/12/30 21:13:03;;;;;;;3.10;1.40;;;;;;;16.22;62.85;101031.97;19759009;30;20546;-72
2021/12/30 21:23:09;;;;;;;2.25;1.05;;;;;;;16.61;63.18;101117.59;19744390;30;20055;-72
2021/12/30 21:33:12;;;;;;;;;;;;;;;16.57;63.27;101108.91;19744706;30;20090;-72
2021/12/30 21:43:15;;;;;;;2.85;1.13;;;;;;;16.39;63.32;101087.06;19742294;30;19975;-72
2021/12/30 21:53:16;;;;;;;2.33;1.00;;;;;;;15.99;63.22;101031.09;19742659;30;20070;-71
2021/12/30 22:03:19;;;;;;;4.22;1.98;;;;;;;15.95;63.33;101034.03;19741969;30;20067;-72
2021/12/30 22:13:22;;;;;;;2.50;1.17;;;;;;;16.18;63.31;101073.50;19740098;30;20063;-72
2021/12/30 22:23:25;;;;;;;2.85;1.33;;;;;;;16.32;63.59;101121.59;19739528;30;20056;-72
2021/12/30 22:33:27;;;;;;;2.15;0.80;;;;;;;15.99;63.61;101063.31;19724038;30;20054;-72
2021/12/30 22:43:29;;;;;;;2.30;1.10;;;;;;;15.95;63.55;101076.16;19739474;30;20056;-72
2021/12/30 22:53:32;;;;;;;1.23;0.80;;;;;;;16.18;63.53;101105.72;19722708;30;20084;-71
2021/12/30 23:03:36;;;;;;;3.00;1.10;;;;;;;16.16;63.15;101100.47;19737282;30;20063;-71
2021/12/30 23:13:38;;;;;;;3.83;1.10;;;;;;;16.19;63.76;101096.69;19737203;30;20063;-71
2021/12/30 23:23:40;;;;;;;4.90;1.02;;;;;;;16.14;63.57;101091.69;19737036;30;20495;-71
2021/12/30 23:33:42;;;;;;;2.58;1.00;;;;;;;15.71;63.79;101023.34;19736102;30;20074;-71
2021/12/30 23:43:44;;;;;;;2.00;0.88;;;;;;;15.62;64.01;101026.75;19735603;30;20062;-72
2021/12/30 23:53:45;;;;;;;1.55;0.77;;;;;;;15.90;63.70;101086.38;19735332;30;20071;-71
